createdAt,value
2023-02-15T00:01:51.505Z,68.98
2023-02-15T00:04:22.009Z,69.03
2023-02-15T00:06:50.142Z,69.04
2023-02-15T00:09:19.350Z,69.01
2023-02-15T00:11:51.118Z,69.14
2023-02-15T00:14:21.300Z,69.08
2023-02-15T00:16:50.322Z,69.13
2023-02-15T00:19:20.177Z,69.03
2023-02-15T00:21:49.653Z,69.05
2023-02-15T00:24:20.744Z,69.22
2023-02-15T00:26:50.123Z,69.16
2023-02-15T00:29:20.032Z,69.27
2023-02-15T00:31:49.314Z,69.35
2023-02-15T00:34:19.793Z,69.05
2023-02-15T00:36:48.427Z,69.50
2023-02-15T00:39:17.817Z,69.25
2023-02-15T00:41:47.210Z,69.58
2023-02-15T00:44:17.145Z,69.38
2023-02-15T00:46:45.189Z,69.48
2023-02-15T00:49:13.341Z,69.61
2023-02-15T00:51:41.533Z,69.47
2023-02-15T00:54:09.977Z,69.65
2023-02-15T00:56:38.060Z,69.76
2023-02-15T00:59:07.306Z,69.45
2023-02-15T01:01:35.132Z,69.71
2023-02-15T01:04:03.887Z,69.72
2023-02-15T01:06:31.666Z,69.80
2023-02-15T01:08:59.471Z,69.59
2023-02-15T01:11:27.606Z,69.58
2023-02-15T01:13:56.723Z,69.64
2023-02-15T01:16:28.447Z,69.97
2023-02-15T01:18:56.959Z,69.83
2023-02-15T01:21:26.806Z,69.85
2023-02-15T01:23:55.621Z,69.82
2023-02-15T01:26:23.639Z,69.67
2023-02-15T01:28:51.473Z,70.03
2023-02-15T01:31:22.459Z,69.96
2023-02-15T01:33:51.682Z,70.09
2023-02-15T01:36:19.759Z,70.13
2023-02-15T01:38:47.755Z,70.10
2023-02-15T01:41:23.785Z,70.19
2023-02-15T01:43:54.361Z,69.91
2023-02-15T01:46:27.232Z,70.06
2023-02-15T01:49:02.153Z,70.25
2023-02-15T01:51:33.185Z,70.22
2023-02-15T01:54:07.896Z,70.14
2023-02-15T01:56:38.271Z,70.23
2023-02-15T01:59:10.213Z,70.15
2023-02-15T02:01:39.614Z,70.34
2023-02-15T02:04:15.500Z,70.19
2023-02-15T02:06:43.564Z,70.42
2023-02-15T02:09:11.606Z,70.38
2023-02-15T02:11:41.434Z,70.41
2023-02-15T02:14:10.048Z,70.11
2023-02-15T02:16:45.083Z,70.50
2023-02-15T02:19:39.648Z,70.41
2023-02-15T02:22:35.123Z,70.47
2023-02-15T02:25:37.275Z,70.68
2023-02-15T02:28:27.601Z,70.49
2023-02-15T02:31:47.062Z,70.47
2023-02-15T02:34:22.032Z,70.51
2023-02-15T02:36:55.261Z,70.39
2023-02-15T02:39:31.607Z,70.65
2023-02-15T02:42:08.137Z,70.68
2023-02-15T02:44:45.060Z,70.70
2023-02-15T02:47:19.947Z,70.88
2023-02-15T02:49:49.230Z,70.76
2023-02-15T02:52:37.534Z,70.84
2023-02-15T02:55:07.919Z,70.70
2023-02-15T02:57:38.357Z,70.83
2023-02-15T03:00:09.673Z,70.80
2023-02-15T03:02:40.336Z,70.93
2023-02-15T03:05:14.894Z,70.80
2023-02-15T03:07:44.794Z,70.90
2023-02-15T03:10:12.930Z,70.94
2023-02-15T03:12:42.779Z,71.00
2023-02-15T03:15:15.223Z,70.89
2023-02-15T03:17:46.609Z,71.19
2023-02-15T03:20:20.881Z,71.02
2023-02-15T03:22:53.097Z,71.08
2023-02-15T03:25:24.912Z,71.10
2023-02-15T03:27:57.837Z,71.27
2023-02-15T03:30:27.646Z,71.04
2023-02-15T03:32:56.435Z,71.37
2023-02-15T03:35:32.736Z,71.17
2023-02-15T03:38:02.962Z,71.07
2023-02-15T03:40:51.733Z,71.16
2023-02-15T03:43:26.136Z,71.13
2023-02-15T03:45:59.807Z,71.36
2023-02-15T03:48:32.054Z,71.21
2023-02-15T03:51:24.606Z,71.34
2023-02-15T03:53:54.524Z,71.21
2023-02-15T03:56:22.362Z,71.66
2023-02-15T03:59:08.088Z,71.40
2023-02-15T04:04:39.454Z,71.27
2023-02-15T04:07:09.629Z,71.45
2023-02-15T04:09:55.468Z,71.39
2023-02-15T04:12:23.723Z,71.65
2023-02-15T04:15:09.424Z,71.50
2023-02-15T04:17:38.374Z,71.32
2023-02-15T04:20:27.609Z,71.50
2023-02-15T04:23:13.195Z,71.56
2023-02-15T04:25:41.160Z,71.58
2023-02-15T04:28:09.464Z,71.43
2023-02-15T04:30:37.552Z,71.40
2023-02-15T04:33:05.420Z,71.69
2023-02-15T04:35:34.613Z,71.64
2023-02-15T04:38:02.783Z,71.72
2023-02-15T04:40:30.736Z,71.76
2023-02-15T04:42:58.650Z,71.47
2023-02-15T04:45:28.152Z,71.58
2023-02-15T04:47:56.502Z,71.55
2023-02-15T04:50:24.721Z,71.83
2023-02-15T04:52:54.005Z,71.86
2023-02-15T04:55:21.945Z,71.84
2023-02-15T04:57:49.752Z,71.87
2023-02-15T05:00:18.219Z,71.91
2023-02-15T05:02:46.104Z,72.00
2023-02-15T05:05:16.147Z,71.83
2023-02-15T05:07:44.100Z,71.89
2023-02-15T05:10:13.390Z,71.90
2023-02-15T05:12:41.305Z,71.84
2023-02-15T05:15:09.940Z,72.04
2023-02-15T05:17:37.746Z,72.06
2023-02-15T05:20:06.706Z,71.84
2023-02-15T05:22:34.479Z,71.99
2023-02-15T05:25:20.050Z,72.33
2023-02-15T05:28:06.637Z,72.01
2023-02-15T05:30:34.698Z,71.94
2023-02-15T05:33:02.610Z,72.29
2023-02-15T05:35:30.402Z,72.05
2023-02-15T05:37:58.170Z,72.10
2023-02-15T05:40:25.976Z,72.07
2023-02-15T05:42:55.109Z,72.16
2023-02-15T05:45:23.069Z,72.18
2023-02-15T05:47:51.316Z,72.20
2023-02-15T05:50:19.463Z,72.41
2023-02-15T05:52:47.273Z,72.25
2023-02-15T05:55:15.089Z,72.17
2023-02-15T05:57:42.984Z,72.22
2023-02-15T06:00:15.029Z,72.22
2023-02-15T06:02:42.930Z,72.34
2023-02-15T06:05:11.176Z,72.38
2023-02-15T06:07:38.984Z,72.29
2023-02-15T06:10:08.304Z,72.36
2023-02-15T06:12:36.101Z,72.32
2023-02-15T06:15:04.123Z,72.36
2023-02-15T06:17:33.833Z,72.42
2023-02-15T06:20:01.639Z,72.39
2023-02-15T06:22:29.497Z,72.50
2023-02-15T06:24:57.279Z,72.48
2023-02-15T06:27:25.088Z,72.43
2023-02-15T06:29:52.867Z,72.40
2023-02-15T06:32:20.662Z,72.42
2023-02-15T06:34:49.994Z,72.51
2023-02-15T06:37:17.846Z,72.47
2023-02-15T06:39:45.808Z,72.60
2023-02-15T06:42:13.705Z,72.42
2023-02-15T06:44:41.701Z,72.48
2023-02-15T06:47:09.636Z,72.90
2023-02-15T06:49:37.634Z,72.63
2023-02-15T06:52:07.347Z,72.57
2023-02-15T06:54:35.410Z,72.62
2023-02-15T06:57:03.314Z,72.57
2023-02-15T06:59:31.194Z,72.59
2023-02-15T07:01:59.584Z,72.70
2023-02-15T07:04:29.708Z,72.62
2023-02-15T07:06:57.807Z,72.56
2023-02-15T07:09:27.399Z,72.77
2023-02-15T07:12:13.059Z,72.88
2023-02-15T07:14:41.642Z,72.71
2023-02-15T07:17:27.430Z,72.66
2023-02-15T07:19:57.690Z,72.78
2023-02-15T07:22:25.714Z,72.75
2023-02-15T07:24:55.812Z,72.90
2023-02-15T07:27:23.758Z,72.64
2023-02-15T07:29:51.624Z,73.10
2023-02-15T07:32:19.669Z,72.95
2023-02-15T07:34:47.728Z,72.95
2023-02-15T07:37:15.665Z,72.87
2023-02-15T07:39:43.512Z,73.13
2023-02-15T07:42:12.872Z,72.98
2023-02-15T07:44:40.949Z,72.93
2023-02-15T07:47:08.875Z,72.85
2023-02-15T07:49:36.796Z,73.21
2023-02-15T07:52:04.704Z,72.96
2023-02-15T07:54:32.672Z,73.15
2023-02-15T07:57:00.520Z,73.24
2023-02-15T07:59:29.848Z,72.97
2023-02-15T08:01:58.261Z,72.66
2023-02-15T08:04:26.789Z,73.03
2023-02-15T08:06:55.961Z,73.30
2023-02-15T08:09:24.302Z,73.29
2023-02-15T08:11:52.438Z,73.38
2023-02-15T08:14:23.039Z,73.07
2023-02-15T08:16:53.450Z,73.18
2023-02-15T08:19:23.624Z,72.85
2023-02-15T08:21:54.418Z,73.20
2023-02-15T08:24:24.327Z,73.28
2023-02-15T08:26:53.137Z,73.24
2023-02-15T08:29:23.528Z,73.09
2023-02-15T08:31:55.933Z,73.04
2023-02-15T08:34:23.920Z,73.17
2023-02-15T08:36:51.953Z,73.21
2023-02-15T08:39:19.964Z,73.26
2023-02-15T08:41:49.507Z,72.94
2023-02-15T08:44:19.294Z,73.40
2023-02-15T08:46:48.917Z,73.26
2023-02-15T08:49:20.625Z,73.28
2023-02-15T08:51:49.999Z,73.20
2023-02-15T08:54:19.899Z,73.51
2023-02-15T08:56:48.175Z,73.38
2023-02-15T08:59:19.069Z,73.51
2023-02-15T09:01:49.902Z,73.04
2023-02-15T09:04:19.759Z,73.43
2023-02-15T09:06:49.649Z,73.61
2023-02-15T09:09:18.828Z,73.69
2023-02-15T09:11:48.937Z,73.56
2023-02-15T09:14:18.916Z,73.31
2023-02-15T09:16:49.912Z,73.68
2023-02-15T09:19:20.950Z,73.46
2023-02-15T09:21:48.908Z,73.63
2023-02-15T09:24:18.605Z,73.52
2023-02-15T09:26:48.273Z,73.84
2023-02-15T09:29:17.063Z,73.18
2023-02-15T09:31:46.817Z,73.44
2023-02-15T09:34:17.191Z,73.82
2023-02-15T09:36:47.560Z,73.35
2023-02-15T09:39:17.976Z,73.41
2023-02-15T09:42:18.478Z,73.70
2023-02-15T09:45:18.203Z,73.57
2023-02-15T09:48:17.508Z,73.49
2023-02-15T09:50:55.587Z,73.49
2023-02-15T09:53:38.241Z,73.58
2023-02-15T09:56:11.765Z,73.71
2023-02-15T09:58:50.370Z,73.49
2023-02-15T10:01:29.321Z,73.43
2023-02-15T10:04:13.305Z,73.61
2023-02-15T10:06:47.281Z,73.69
2023-02-15T10:09:48.386Z,73.70
2023-02-15T10:12:40.636Z,73.88
2023-02-15T10:15:31.548Z,73.53
2023-02-15T10:18:17.160Z,73.63
2023-02-15T10:20:58.678Z,74.00
2023-02-15T10:23:40.637Z,73.73
2023-02-15T10:26:18.197Z,73.40
2023-02-15T10:28:50.723Z,73.97
2023-02-15T10:31:27.156Z,73.92
2023-02-15T10:34:13.313Z,73.72
2023-02-15T10:37:00.641Z,73.96
2023-02-15T10:39:35.482Z,73.86
2023-02-15T10:42:12.129Z,73.60
2023-02-15T10:44:57.324Z,73.50
2023-02-15T10:47:48.049Z,73.77
2023-02-15T10:50:29.168Z,73.89
2023-02-15T10:53:10.360Z,73.93
2023-02-15T10:55:51.082Z,73.96
2023-02-15T10:58:34.608Z,74.18
2023-02-15T11:01:14.877Z,73.65
2023-02-15T11:04:08.167Z,73.69
2023-02-15T11:06:38.751Z,74.05
2023-02-15T11:09:12.796Z,73.44
2023-02-15T11:11:43.465Z,74.14
2023-02-15T11:14:17.781Z,73.69
2023-02-15T11:16:51.151Z,74.01
2023-02-15T11:19:24.475Z,73.78
2023-02-15T11:21:57.036Z,73.86
2023-02-15T11:24:30.080Z,74.08
2023-02-15T11:27:02.334Z,73.76
2023-02-15T11:29:36.626Z,73.89
2023-02-15T11:32:16.128Z,74.12
2023-02-15T11:34:53.829Z,74.07
2023-02-15T11:37:30.685Z,74.30
2023-02-15T11:39:58.534Z,73.84
2023-02-15T11:42:29.926Z,73.99
2023-02-15T11:45:06.510Z,73.70
2023-02-15T11:47:34.410Z,74.14
2023-02-15T11:50:02.425Z,73.87
2023-02-15T11:52:30.228Z,73.82
2023-02-15T11:54:58.180Z,73.75
2023-02-15T11:57:30.610Z,74.23
2023-02-15T12:00:05.117Z,73.71
2023-02-15T12:02:35.415Z,74.08
2023-02-15T12:05:08.970Z,74.02
2023-02-15T12:07:39.676Z,73.76
2023-02-15T12:10:21.583Z,73.85
2023-02-15T12:12:49.578Z,73.59
2023-02-15T12:15:33.314Z,73.60
2023-02-15T12:18:01.532Z,74.32
2023-02-15T12:20:32.921Z,73.78
2023-02-15T12:23:04.188Z,74.16
2023-02-15T12:25:38.443Z,74.10
2023-02-15T12:28:19.055Z,74.32
2023-02-15T12:30:48.504Z,73.56
2023-02-15T12:33:19.211Z,74.09
2023-02-15T12:35:50.347Z,74.06
2023-02-15T12:38:26.556Z,74.12
2023-02-15T12:41:01.602Z,73.69
2023-02-15T12:43:34.344Z,74.33
2023-02-15T12:46:25.295Z,73.78
2023-02-15T12:49:09.921Z,74.32
2023-02-15T12:51:48.697Z,73.99
2023-02-15T12:54:35.463Z,74.08
2023-02-15T12:57:26.876Z,74.17
2023-02-15T12:59:57.517Z,73.94
2023-02-15T13:02:30.438Z,73.80
2023-02-15T13:04:59.670Z,74.19
2023-02-15T13:07:33.295Z,74.04
2023-02-15T13:10:01.511Z,73.74
2023-02-15T13:12:33.058Z,73.67
2023-02-15T13:15:03.414Z,73.85
2023-02-15T13:17:35.851Z,74.01
2023-02-15T13:20:10.767Z,74.07
2023-02-15T13:22:44.019Z,74.10
2023-02-15T13:25:17.465Z,73.94
2023-02-15T13:27:47.083Z,73.89
2023-02-15T13:30:27.545Z,74.09
2023-02-15T13:33:01.564Z,74.03
2023-02-15T13:35:38.337Z,73.79
2023-02-15T13:38:22.193Z,73.65
2023-02-15T13:40:55.834Z,73.97
2023-02-15T13:43:43.286Z,73.83
2023-02-15T13:46:21.772Z,73.91
2023-02-15T13:49:05.095Z,74.28
2023-02-15T13:51:42.794Z,74.16
2023-02-15T13:54:49.520Z,74.10
2023-02-15T13:57:43.619Z,74.17
2023-02-15T14:00:19.230Z,73.99
2023-02-15T14:03:19.666Z,73.79
2023-02-15T14:06:09.105Z,74.10
2023-02-15T14:08:48.870Z,73.95
2023-02-15T14:11:23.578Z,74.05
2023-02-15T14:14:17.817Z,74.15
2023-02-15T14:17:06.809Z,74.25
2023-02-15T14:19:39.540Z,73.82
2023-02-15T14:22:17.946Z,74.33
2023-02-15T14:24:52.206Z,74.21
2023-02-15T14:27:29.311Z,74.09
2023-02-15T14:29:59.937Z,73.82
2023-02-15T14:32:33.743Z,74.21
2023-02-15T14:35:02.880Z,74.26
2023-02-15T14:37:43.731Z,74.08
2023-02-15T14:40:37.002Z,74.24
2023-02-15T14:43:13.817Z,74.38
2023-02-15T14:45:57.816Z,74.12
2023-02-15T14:48:33.206Z,73.92
2023-02-15T14:51:02.488Z,74.09
2023-02-15T14:53:40.823Z,74.02
2023-02-15T14:56:27.164Z,74.07
2023-02-15T14:59:01.639Z,74.08
2023-02-15T15:01:31.855Z,74.00
2023-02-15T15:04:04.879Z,74.03
2023-02-15T15:06:34.938Z,74.11
2023-02-15T15:09:14.638Z,74.18
2023-02-15T15:11:45.862Z,74.11
2023-02-15T15:14:43.725Z,74.16
2023-02-15T15:17:38.772Z,73.97
2023-02-15T15:20:15.414Z,74.24
2023-02-15T15:22:44.800Z,73.96
2023-02-15T15:25:46.918Z,74.18
2023-02-15T15:28:47.343Z,74.14
2023-02-15T15:31:22.304Z,74.16
2023-02-15T15:34:19.685Z,74.17
2023-02-15T15:37:38.898Z,74.30
2023-02-15T15:40:35.539Z,74.15
2023-02-15T15:43:34.801Z,74.20
2023-02-15T15:46:15.547Z,74.15
2023-02-15T15:48:43.758Z,74.07
2023-02-15T15:51:19.901Z,74.23
2023-02-15T15:53:52.234Z,74.02
2023-02-15T15:56:23.329Z,74.42
2023-02-15T15:58:56.558Z,74.25
2023-02-15T16:01:30.562Z,74.22
2023-02-15T16:04:00.163Z,74.42
2023-02-15T16:06:34.115Z,74.32
2023-02-15T16:09:17.626Z,74.00
2023-02-15T16:11:46.109Z,74.43
2023-02-15T16:14:19.373Z,74.24
2023-02-15T16:16:54.217Z,74.41
2023-02-15T16:19:25.661Z,74.01
2023-02-15T16:21:54.019Z,74.19
2023-02-15T16:24:29.249Z,74.35
2023-02-15T16:27:21.742Z,74.44
2023-02-15T16:29:51.048Z,74.18
2023-02-15T16:32:21.627Z,74.27
2023-02-15T16:34:57.458Z,74.28
2023-02-15T16:37:28.392Z,74.29
2023-02-15T16:39:57.370Z,74.35
2023-02-15T16:42:26.066Z,74.37
2023-02-15T16:45:01.330Z,74.40
2023-02-15T16:47:32.415Z,74.49
2023-02-15T16:50:03.358Z,74.19
2023-02-15T16:52:31.984Z,74.31
2023-02-15T16:55:02.035Z,74.35
2023-02-15T16:57:33.330Z,74.49
2023-02-15T17:00:08.266Z,74.24
2023-02-15T17:02:55.113Z,74.25
2023-02-15T17:05:25.082Z,74.21
2023-02-15T17:08:14.155Z,74.33
2023-02-15T17:10:44.138Z,74.52
2023-02-15T17:13:13.605Z,74.44
2023-02-15T17:15:44.811Z,74.41
2023-02-15T17:18:18.867Z,74.24
2023-02-15T17:20:48.300Z,74.36
2023-02-15T17:23:27.740Z,74.37
2023-02-15T17:25:56.322Z,74.31
2023-02-15T17:28:26.828Z,74.62
2023-02-15T17:30:57.752Z,74.62
2023-02-15T17:33:30.084Z,74.59
2023-02-15T17:36:06.665Z,74.60
2023-02-15T17:38:34.999Z,74.65
2023-02-15T17:41:03.211Z,74.34
2023-02-15T17:43:31.208Z,74.62
2023-02-15T17:46:00.804Z,74.42
2023-02-15T17:48:33.592Z,74.35
2023-02-15T17:51:03.497Z,74.68
2023-02-15T17:53:32.112Z,74.43
2023-02-15T17:55:59.044Z,74.60
2023-02-15T17:58:27.125Z,74.82
2023-02-15T18:01:15.948Z,74.78
2023-02-15T18:04:06.258Z,74.40
2023-02-15T18:06:52.457Z,74.49
2023-02-15T18:09:39.944Z,74.80
2023-02-15T18:12:20.541Z,74.71
2023-02-15T18:14:48.461Z,74.60
2023-02-15T18:17:17.585Z,74.76
2023-02-15T18:19:48.516Z,74.60
2023-02-15T18:22:19.070Z,74.77
2023-02-15T18:24:47.861Z,74.79
2023-02-15T18:27:17.196Z,74.82
2023-02-15T18:29:45.113Z,74.73
2023-02-15T18:32:18.349Z,74.76
2023-02-15T18:34:49.541Z,74.85
2023-02-15T18:37:20.608Z,74.67
2023-02-15T18:39:50.298Z,74.86
2023-02-15T18:42:22.680Z,74.97
2023-02-15T18:44:51.320Z,74.65
2023-02-15T18:47:19.228Z,74.87
2023-02-15T18:49:48.521Z,74.58
2023-02-15T18:52:18.122Z,74.76
2023-02-15T18:54:46.961Z,74.63
2023-02-15T18:57:16.850Z,74.63
2023-02-15T18:59:44.818Z,74.75
2023-02-15T19:02:18.007Z,74.80
2023-02-15T19:04:46.951Z,75.00
2023-02-15T19:07:20.550Z,74.77
2023-02-15T19:09:52.038Z,74.81
2023-02-15T19:12:20.564Z,74.84
2023-02-15T19:14:49.000Z,74.96
2023-02-15T19:17:19.223Z,74.97
2023-02-15T19:19:47.792Z,74.82
2023-02-15T19:22:19.244Z,75.02
2023-02-15T19:24:49.007Z,74.87
2023-02-15T19:27:23.762Z,75.03
2023-02-15T19:29:52.255Z,74.75
2023-02-15T19:32:20.030Z,75.06
2023-02-15T19:34:47.840Z,74.72
2023-02-15T19:37:24.655Z,74.75
2023-02-15T19:39:53.079Z,75.21
2023-02-15T19:42:24.096Z,74.91
2023-02-15T19:44:52.123Z,75.15
2023-02-15T19:47:20.106Z,75.00
2023-02-15T19:49:48.330Z,75.08
2023-02-15T19:52:19.824Z,74.95
2023-02-15T19:54:49.345Z,74.94
2023-02-15T19:57:17.418Z,75.00
2023-02-15T19:59:45.298Z,75.14
2023-02-15T20:02:15.463Z,75.17
2023-02-15T20:04:43.553Z,75.16
2023-02-15T20:07:23.316Z,75.33
2023-02-15T20:09:51.234Z,75.17
2023-02-15T20:12:25.058Z,75.14
2023-02-15T20:14:53.636Z,75.20
2023-02-15T20:17:21.508Z,75.12
2023-02-15T20:19:49.479Z,75.15
2023-02-15T20:22:24.441Z,75.29
2023-02-15T20:24:55.630Z,75.17
2023-02-15T20:27:24.114Z,75.22
2023-02-15T20:29:52.241Z,75.12
2023-02-15T20:32:20.322Z,75.11
2023-02-15T20:34:48.331Z,75.27
2023-02-15T20:37:26.412Z,75.28
2023-02-15T20:39:54.479Z,75.22
2023-02-15T20:42:22.540Z,75.25
2023-02-15T20:44:50.445Z,75.12
2023-02-15T20:47:18.482Z,74.94
2023-02-15T20:49:46.334Z,75.27
2023-02-15T20:52:20.398Z,75.37
2023-02-15T20:54:49.828Z,75.01
2023-02-15T20:57:17.820Z,75.38
2023-02-15T20:59:46.040Z,75.18
2023-02-15T21:02:18.925Z,75.33
2023-02-15T21:04:47.174Z,75.05
2023-02-15T21:07:16.956Z,75.29
2023-02-15T21:09:45.222Z,75.49
2023-02-15T21:12:16.154Z,75.24
2023-02-15T21:14:45.150Z,75.52
2023-02-15T21:17:13.537Z,75.14
2023-02-15T21:19:41.737Z,75.59
2023-02-15T21:22:13.433Z,75.52
2023-02-15T21:24:47.865Z,75.34
2023-02-15T21:27:18.857Z,75.13
2023-02-15T21:29:46.688Z,75.17
2023-02-15T21:32:14.716Z,75.78
2023-02-15T21:34:42.764Z,75.35
2023-02-15T21:37:27.486Z,75.33
2023-02-15T21:39:55.378Z,75.91
2023-02-15T21:42:42.310Z,75.56
2023-02-15T21:45:33.383Z,75.51
2023-02-15T21:48:01.546Z,75.58
2023-02-15T21:50:47.507Z,75.61
2023-02-15T21:53:23.084Z,75.14
2023-02-15T21:55:52.472Z,75.64
2023-02-15T21:58:24.488Z,75.74
2023-02-15T22:00:54.875Z,75.55
2023-02-15T22:03:23.948Z,75.67
2023-02-15T22:05:52.135Z,75.65
2023-02-15T22:08:20.464Z,75.51
2023-02-15T22:10:49.094Z,75.73
2023-02-15T22:13:20.554Z,75.65
2023-02-15T22:15:49.902Z,75.72
2023-02-15T22:18:24.111Z,75.57
2023-02-15T22:20:52.911Z,75.94
2023-02-15T22:23:21.810Z,75.55
2023-02-15T22:25:55.754Z,75.65
2023-02-15T22:28:29.120Z,75.43
2023-02-15T22:30:58.518Z,75.61
2023-02-15T22:33:29.776Z,75.58
2023-02-15T22:35:58.674Z,75.52
2023-02-15T22:38:27.166Z,75.75
2023-02-15T22:40:57.839Z,75.58
2023-02-15T22:43:36.855Z,75.46
2023-02-15T22:46:08.474Z,75.71
2023-02-15T22:48:36.786Z,75.73
2023-02-15T22:51:05.229Z,75.67
2023-02-15T22:53:33.443Z,75.69
2023-02-15T22:56:07.469Z,75.62
2023-02-15T22:58:35.930Z,75.47
2023-02-15T23:01:04.043Z,75.69
2023-02-15T23:03:34.313Z,76.03
2023-02-15T23:06:02.226Z,75.79
2023-02-15T23:08:30.265Z,75.95
2023-02-15T23:10:58.758Z,75.66
2023-02-15T23:13:32.253Z,75.90
2023-02-15T23:16:02.388Z,75.82
2023-02-15T23:18:35.330Z,76.00
2023-02-15T23:21:07.581Z,75.68
2023-02-15T23:23:38.090Z,75.89
2023-02-15T23:26:16.354Z,76.03
2023-02-15T23:28:44.446Z,75.75
2023-02-15T23:31:19.154Z,75.74
2023-02-15T23:33:49.699Z,76.11
2023-02-15T23:36:27.554Z,75.91
2023-02-15T23:38:55.844Z,75.95
2023-02-15T23:41:26.695Z,75.82
2023-02-15T23:43:57.773Z,75.82
2023-02-15T23:46:34.094Z,75.97
2023-02-15T23:49:15.157Z,75.78
2023-02-15T23:51:44.815Z,75.78
2023-02-15T23:54:15.480Z,75.84
2023-02-15T23:56:45.406Z,75.82
2023-02-15T23:59:17.752Z,75.82
